Flight Track Log - Related Links

Times and Time Zones

All times are in EDT time to prevent confusion due to time zone crossing. See the SWA397 flight status page for this flight to view local times or setup timezone preferences in your user account.

Time Position Orientation Groundspeed Altitude Reporting Facility
EDT Latitude Longitude Course Direction KTS MPH feet Rate Location/Type
Mon 09:07:38 PM 41.8014 -87.7089 45° Northeast 164 189 2,400  Level Chicago Center
Mon 09:08:40 PM 41.8386 -87.6592 45° Northeast 232 267 5,600 3,435 Climbing Chicago Center
Mon 09:09:42 PM 41.9147 -87.6561 North 260 299 9,500 3,317 Climbing Chicago Center
Mon 09:10:43 PM 41.9808 -87.6897 339° North 259 298 12,400 2,390 Climbing Chicago Center
Mon 09:11:45 PM 42.0628 -87.7242 343° North 307 353 14,400 2,323 Climbing Chicago Center
Mon 09:12:47 PM 42.1572 -87.7742 339° North 360 414 17,200 2,613 Climbing Chicago Center
Mon 09:13:49 PM 42.2561 -87.8264 339° North 378 435 19,800 2,613 Climbing Chicago Center
Mon 09:14:51 PM 42.3672 -87.8850 339° North 396 456 22,600 2,565 Climbing Chicago Center
Mon 09:15:53 PM 42.4747 -87.9419 339° North 410 472 25,100 2,537 Climbing Chicago Center
Mon 09:16:54 PM 42.6069 -88.0128 338° Northwest 424 488 27,800 2,634 Climbing Chicago Center
Mon 09:17:56 PM 42.7183 -88.0714 339° North 430 495 30,500 2,032 Climbing Chicago Center
Mon 09:18:58 PM 42.8083 -88.1711 321° Northwest 422 486 32,000 726 Climbing Chicago Center
Mon 09:20:00 PM 42.8906 -88.2850 315° West 422 486 32,000  Level Chicago Center
Mon 09:21:01 PM 42.9736 -88.3969 315° West 420 483 32,000  Level Chicago Center
Mon 09:22:03 PM 43.0556 -88.5108 315° West 419 482 32,000  Level Chicago Center
Mon 09:23:05 PM 43.1367 -88.6242 314° West 415 478 32,000  Level Chicago Center
Mon 09:24:07 PM 43.2200 -88.7403 315° West 420 483 32,000  Level Chicago Center
Mon 09:25:08 PM 43.3039 -88.8572 315° West 424 488 32,000  Level Chicago Center
Mon 09:26:10 PM 43.4042 -88.9964 315° West 425 489 32,000  Level Chicago Center
Mon 09:27:12 PM 43.4869 -89.1131 314° West 424 488 32,000  Level Chicago Center
Mon 09:28:14 PM 43.5694 -89.2303 314° West 424 488 32,000  Level Chicago Center
Mon 09:29:16 PM 43.6514 -89.3469 314° West 423 487 32,000  Level Chicago Center
Mon 09:30:17 PM 43.7331 -89.4650 314° West 425 489 32,000  Level Chicago Center
Mon 09:31:19 PM 43.8003 -89.5989 305° West 426 490 32,000  Level Chicago Center
Mon 09:32:21 PM 43.8644 -89.7339 303° West 421 484 32,000  Level Chicago Center
Mon 09:33:23 PM 43.9433 -89.8992 304° West 427 491 32,000  Level Chicago Center
Mon 09:34:25 PM 44.0106 -90.0367 304° West 430 495 32,000  Level Chicago Center
Mon 09:35:26 PM 44.0764 -90.1750 304° West 430 495 32,000  Level Chicago Center
Mon 09:35:58 PM 44.1017 -90.2306 302° West 432 497 32,000  Level Minneapolis Center
Mon 09:37:00 PM 44.1789 -90.3978 303° West 430 495 32,000  Level Minneapolis Center
Mon 09:38:01 PM 44.2350 -90.5442 298° West 429 494 32,000  Level Minneapolis Center
Mon 09:39:03 PM 44.2864 -90.6706 300° West 426 490 32,000 -976 Level Minneapolis Center
Mon 09:40:04 PM 44.3497 -90.8314 299° West 424 488 30,000 -1,805 Descending Minneapolis Center
Mon 09:41:06 PM 44.4025 -90.9672 299° West 410 472 28,300 -1,220 Descending Minneapolis Center
Mon 09:42:07 PM 44.4578 -91.1128 298° West 417 480 27,500 -787 Descending Minneapolis Center
Mon 09:43:08 PM 44.5161 -91.2661 298° West 438 504 26,700 -1,512 Descending Minneapolis Center
Mon 09:44:10 PM 44.5761 -91.4214 299° West 449 517 24,400 -2,683 Descending Minneapolis Center
Mon 09:45:11 PM 44.6442 -91.5969 299° West 436 502 21,200 -2,803 Descending Minneapolis Center
Mon 09:46:12 PM 44.6967 -91.7403 297° West 422 486 18,700 -2,488 Descending Minneapolis Center
Mon 09:47:14 PM 44.7486 -91.8781 298° West 407 468 16,100 -2,488 Descending Minneapolis Center
Mon 09:48:15 PM 44.7978 -92.0125 297° West 391 450 13,600 -2,410 Descending Minneapolis Center
Mon 09:49:16 PM 44.8467 -92.1436 298° West 381 438 11,200 -1,279 Descending Minneapolis Center
Mon 09:50:17 PM 44.8914 -92.2706 296° West 365 420 11,000 -98 Descending Minneapolis Center
Mon 09:51:19 PM 44.9014 -92.4022 276° West 338 389 11,000  Level Minneapolis Center
Mon 09:52:20 PM 44.9075 -92.5319 274° West 332 382 11,000  Level Minneapolis Center
Mon 09:53:21 PM 44.9147 -92.6889 274° West 335 386 11,000 -344 Level Minneapolis Center
Mon 09:54:22 PM 44.9206 -92.8100 274° West 312 359 10,300 -1,033 Descending Minneapolis Center
Mon 09:55:23 PM 44.9258 -92.9236 274° West 295 339 8,900 -1,131 Descending Minneapolis Center
Mon 09:56:24 PM 44.9303 -93.0328 273° West 283 326 8,000 -738 Descending Minneapolis Center
Mon 09:57:25 PM 44.9642 -93.1217 298° West 267 307 7,400 -787 Descending Minneapolis Center
Mon 09:58:26 PM 45.0075 -93.2006 308° West 258 297 6,400 -1,033 Descending Minneapolis Center
Mon 09:59:27 PM 45.0367 -93.2836 296° West 237 273 5,300 -878 Descending Minneapolis Center
Mon 10:00:29 PM 45.0344 -93.3633 268° West 206 237 4,600 -780 Descending Minneapolis Center
Mon 10:01:30 PM 44.9883 -93.3992 209° Southwest 164 189 3,700 -738 Descending Minneapolis Center
Mon 10:02:31 PM 44.9497 -93.3747 156° South 153 176 3,100 -689 Descending Minneapolis Center
Mon 10:03:32 PM 44.9289 -93.3297 123° Southeast 137 158 2,300 -639 Descending Minneapolis Center
Mon 10:04:33 PM 44.9122 -93.2908 121° Southeast 118 136 1,800 -590 Descending Minneapolis Center
Mon 10:05:34 PM 44.8956 -93.2522 121° Southeast 115 132 1,100 -689 Descending Minneapolis Center
Mon 10:07:00 PM 44.8820 -93.2218 129° Southeast  Level Estimated
Mon 10:14:00 PM 44.8820 -93.2218 129° Southeast  Level Estimated

Login

Don't have an account? Register now (free) for customized features, flight alerts, and more!